sensor_id;sensor_type;location;lat;lon;timestamp;temperature;humidity
58568;DHT22;44354;46.192;-1.076;2023-04-15T00:00:23;10.00;99.90
58568;DHT22;44354;46.192;-1.076;2023-04-15T00:02:50;9.90;99.90
58568;DHT22;44354;46.192;-1.076;2023-04-15T00:05:15;9.90;99.90
58568;DHT22;44354;46.192;-1.076;2023-04-15T00:07:41;9.90;99.90
58568;DHT22;44354;46.192;-1.076;2023-04-15T00:10:06;9.80;99.90
58568;DHT22;44354;46.192;-1.076;2023-04-15T00:12:32;9.80;99.90
58568;DHT22;44354;46.192;-1.076;2023-04-15T00:14:58;9.80;99.90
58568;DHT22;44354;46.192;-1.076;2023-04-15T00:17:23;9.80;99.90
58568;DHT22;44354;46.192;-1.076;2023-04-15T00:19:49;9.80;99.90
58568;DHT22;44354;46.192;-1.076;2023-04-15T00:22:14;9.80;99.90
58568;DHT22;44354;46.192;-1.076;2023-04-15T00:24:40;9.80;99.90
58568;DHT22;44354;46.192;-1.076;2023-04-15T00:27:07;9.80;99.90
58568;DHT22;44354;46.192;-1.076;2023-04-15T00:29:32;9.80;99.90
58568;DHT22;44354;46.192;-1.076;2023-04-15T00:31:58;9.70;99.90
58568;DHT22;44354;46.192;-1.076;2023-04-15T00:34:23;9.70;99.90
58568;DHT22;44354;46.192;-1.076;2023-04-15T00:36:49;9.60;99.90
58568;DHT22;44354;46.192;-1.076;2023-04-15T00:39:15;9.70;99.90
58568;DHT22;44354;46.192;-1.076;2023-04-15T00:41:41;9.60;99.90
58568;DHT22;44354;46.192;-1.076;2023-04-15T00:44:07;9.60;99.90
58568;DHT22;44354;46.192;-1.076;2023-04-15T00:46:37;9.60;99.90
58568;DHT22;44354;46.192;-1.076;2023-04-15T00:49:03;9.60;99.90
58568;DHT22;44354;46.192;-1.076;2023-04-15T00:51:29;9.50;99.90
58568;DHT22;44354;46.192;-1.076;2023-04-15T00:53:55;9.50;99.90
58568;DHT22;44354;46.192;-1.076;2023-04-15T00:56:21;9.50;99.90
58568;DHT22;44354;46.192;-1.076;2023-04-15T00:58:49;9.50;99.90
58568;DHT22;44354;46.192;-1.076;2023-04-15T01:01:16;9.50;99.90
58568;DHT22;44354;46.192;-1.076;2023-04-15T01:03:42;9.50;99.90
58568;DHT22;44354;46.192;-1.076;2023-04-15T01:06:09;9.50;99.90
58568;DHT22;44354;46.192;-1.076;2023-04-15T01:08:34;9.50;99.90
58568;DHT22;44354;46.192;-1.076;2023-04-15T01:11:00;9.40;99.90
58568;DHT22;44354;46.192;-1.076;2023-04-15T01:13:27;9.40;99.90
58568;DHT22;44354;46.192;-1.076;2023-04-15T01:15:53;9.40;99.90
58568;DHT22;44354;46.192;-1.076;2023-04-15T01:18:21;9.30;99.90
58568;DHT22;44354;46.192;-1.076;2023-04-15T01:20:46;9.30;99.90
58568;DHT22;44354;46.192;-1.076;2023-04-15T01:23:12;9.30;99.90
58568;DHT22;44354;46.192;-1.076;2023-04-15T01:25:37;9.30;99.90
58568;DHT22;44354;46.192;-1.076;2023-04-15T01:28:04;9.30;99.90
58568;DHT22;44354;46.192;-1.076;2023-04-15T01:30:32;9.30;99.90
58568;DHT22;44354;46.192;-1.076;2023-04-15T01:32:58;9.20;99.90
58568;DHT22;44354;46.192;-1.076;2023-04-15T01:35:23;9.20;99.90
58568;DHT22;44354;46.192;-1.076;2023-04-15T01:37:49;9.20;99.90
58568;DHT22;44354;46.192;-1.076;2023-04-15T01:40:15;9.10;99.90
58568;DHT22;44354;46.192;-1.076;2023-04-15T01:42:41;9.10;99.90
58568;DHT22;44354;46.192;-1.076;2023-04-15T01:45:06;9.00;99.90
58568;DHT22;44354;46.192;-1.076;2023-04-15T01:47:32;9.00;99.90
58568;DHT22;44354;46.192;-1.076;2023-04-15T01:49:58;9.00;99.90
58568;DHT22;44354;46.192;-1.076;2023-04-15T01:52:23;8.90;99.90
58568;DHT22;44354;46.192;-1.076;2023-04-15T01:54:49;8.90;99.90
58568;DHT22;44354;46.192;-1.076;2023-04-15T01:57:15;8.90;99.90
58568;DHT22;44354;46.192;-1.076;2023-04-15T01:59:41;8.90;99.90
58568;DHT22;44354;46.192;-1.076;2023-04-15T02:02:07;8.90;99.90
58568;DHT22;44354;46.192;-1.076;2023-04-15T02:04:32;8.90;99.90
58568;DHT22;44354;46.192;-1.076;2023-04-15T02:06:58;9.00;99.90
58568;DHT22;44354;46.192;-1.076;2023-04-15T02:09:24;8.90;99.90
58568;DHT22;44354;46.192;-1.076;2023-04-15T02:11:50;8.90;99.90
58568;DHT22;44354;46.192;-1.076;2023-04-15T02:14:15;8.90;99.90
58568;DHT22;44354;46.192;-1.076;2023-04-15T02:16:41;8.90;99.90
58568;DHT22;44354;46.192;-1.076;2023-04-15T02:19:06;8.90;99.90
58568;DHT22;44354;46.192;-1.076;2023-04-15T02:21:33;8.80;99.90
58568;DHT22;44354;46.192;-1.076;2023-04-15T02:23:59;8.80;99.90
58568;DHT22;44354;46.192;-1.076;2023-04-15T02:26:26;8.80;99.90
58568;DHT22;44354;46.192;-1.076;2023-04-15T02:28:52;8.80;99.90
58568;DHT22;44354;46.192;-1.076;2023-04-15T02:31:17;8.80;99.90
58568;DHT22;44354;46.192;-1.076;2023-04-15T02:33:43;8.80;99.90
58568;DHT22;44354;46.192;-1.076;2023-04-15T02:36:09;8.70;99.90
58568;DHT22;44354;46.192;-1.076;2023-04-15T02:38:36;8.70;99.90
58568;DHT22;44354;46.192;-1.076;2023-04-15T02:41:02;8.70;99.90
58568;DHT22;44354;46.192;-1.076;2023-04-15T02:43:29;8.60;99.90
58568;DHT22;44354;46.192;-1.076;2023-04-15T02:45:54;8.60;99.90
58568;DHT22;44354;46.192;-1.076;2023-04-15T02:48:20;8.60;99.90
58568;DHT22;44354;46.192;-1.076;2023-04-15T02:50:46;8.60;99.90
58568;DHT22;44354;46.192;-1.076;2023-04-15T02:53:12;8.60;99.90
58568;DHT22;44354;46.192;-1.076;2023-04-15T02:55:39;8.60;99.90
58568;DHT22;44354;46.192;-1.076;2023-04-15T02:58:04;8.60;99.90
58568;DHT22;44354;46.192;-1.076;2023-04-15T03:00:30;8.50;99.90
58568;DHT22;44354;46.192;-1.076;2023-04-15T03:03:03;8.50;99.90
58568;DHT22;44354;46.192;-1.076;2023-04-15T03:05:29;8.50;99.90
58568;DHT22;44354;46.192;-1.076;2023-04-15T03:07:54;8.50;99.90
58568;DHT22;44354;46.192;-1.076;2023-04-15T03:10:20;8.50;99.90
58568;DHT22;44354;46.192;-1.076;2023-04-15T03:12:46;8.40;99.90
58568;DHT22;44354;46.192;-1.076;2023-04-15T03:15:12;8.40;99.90
58568;DHT22;44354;46.192;-1.076;2023-04-15T03:17:37;8.30;99.90
58568;DHT22;44354;46.192;-1.076;2023-04-15T03:20:03;8.20;99.90
58568;DHT22;44354;46.192;-1.076;2023-04-15T03:22:30;8.20;99.90
58568;DHT22;44354;46.192;-1.076;2023-04-15T03:24:56;8.20;99.90
58568;DHT22;44354;46.192;-1.076;2023-04-15T03:27:21;8.20;99.90
58568;DHT22;44354;46.192;-1.076;2023-04-15T03:29:47;8.10;99.90
58568;DHT22;44354;46.192;-1.076;2023-04-15T03:32:12;8.10;99.90
58568;DHT22;44354;46.192;-1.076;2023-04-15T03:34:39;8.10;99.90
58568;DHT22;44354;46.192;-1.076;2023-04-15T03:37:05;8.00;99.90
58568;DHT22;44354;46.192;-1.076;2023-04-15T03:39:31;8.00;99.90
58568;DHT22;44354;46.192;-1.076;2023-04-15T03:41:57;7.90;99.90
58568;DHT22;44354;46.192;-1.076;2023-04-15T03:44:23;7.90;99.90
58568;DHT22;44354;46.192;-1.076;2023-04-15T03:46:49;7.80;99.90
58568;DHT22;44354;46.192;-1.076;2023-04-15T03:49:14;7.80;99.90
58568;DHT22;44354;46.192;-1.076;2023-04-15T03:51:40;7.80;99.90
58568;DHT22;44354;46.192;-1.076;2023-04-15T03:54:06;7.80;99.90
58568;DHT22;44354;46.192;-1.076;2023-04-15T03:56:31;7.80;99.90
58568;DHT22;44354;46.192;-1.076;2023-04-15T03:58:56;7.70;99.90
58568;DHT22;44354;46.192;-1.076;2023-04-15T04:01:22;7.70;99.90
58568;DHT22;44354;46.192;-1.076;2023-04-15T04:03:47;7.70;99.90
58568;DHT22;44354;46.192;-1.076;2023-04-15T04:06:13;7.60;99.90
58568;DHT22;44354;46.192;-1.076;2023-04-15T04:08:39;7.60;99.90
58568;DHT22;44354;46.192;-1.076;2023-04-15T04:11:05;7.60;99.90
58568;DHT22;44354;46.192;-1.076;2023-04-15T04:13:31;7.50;99.90
58568;DHT22;44354;46.192;-1.076;2023-04-15T04:15:56;7.50;99.90
58568;DHT22;44354;46.192;-1.076;2023-04-15T04:18:22;7.40;99.90
58568;DHT22;44354;46.192;-1.076;2023-04-15T04:20:47;7.40;99.90
58568;DHT22;44354;46.192;-1.076;2023-04-15T04:23:13;7.40;99.90
58568;DHT22;44354;46.192;-1.076;2023-04-15T04:25:38;7.40;99.90
58568;DHT22;44354;46.192;-1.076;2023-04-15T04:28:04;7.40;99.90
58568;DHT22;44354;46.192;-1.076;2023-04-15T04:30:29;7.40;99.90
58568;DHT22;44354;46.192;-1.076;2023-04-15T04:32:55;7.30;99.90
58568;DHT22;44354;46.192;-1.076;2023-04-15T04:35:20;7.30;99.90
58568;DHT22;44354;46.192;-1.076;2023-04-15T04:37:46;7.30;99.90
58568;DHT22;44354;46.192;-1.076;2023-04-15T04:40:11;7.30;99.90
58568;DHT22;44354;46.192;-1.076;2023-04-15T04:42:37;7.30;99.90
58568;DHT22;44354;46.192;-1.076;2023-04-15T04:45:03;7.30;99.90
58568;DHT22;44354;46.192;-1.076;2023-04-15T04:47:28;7.30;99.90
58568;DHT22;44354;46.192;-1.076;2023-04-15T04:49:54;7.30;99.90
58568;DHT22;44354;46.192;-1.076;2023-04-15T04:52:20;7.30;99.90
58568;DHT22;44354;46.192;-1.076;2023-04-15T04:54:45;7.20;99.90
58568;DHT22;44354;46.192;-1.076;2023-04-15T04:57:11;7.10;99.90
58568;DHT22;44354;46.192;-1.076;2023-04-15T04:59:38;7.10;99.90
58568;DHT22;44354;46.192;-1.076;2023-04-15T05:02:03;7.10;99.90
58568;DHT22;44354;46.192;-1.076;2023-04-15T05:04:29;7.10;99.90
58568;DHT22;44354;46.192;-1.076;2023-04-15T05:06:56;7.10;99.90
58568;DHT22;44354;46.192;-1.076;2023-04-15T05:09:22;7.00;99.90
58568;DHT22;44354;46.192;-1.076;2023-04-15T05:11:47;7.00;99.90
58568;DHT22;44354;46.192;-1.076;2023-04-15T05:14:13;7.00;99.90
58568;DHT22;44354;46.192;-1.076;2023-04-15T05:16:38;7.00;99.90
58568;DHT22;44354;46.192;-1.076;2023-04-15T05:19:04;7.00;99.90
58568;DHT22;44354;46.192;-1.076;2023-04-15T05:21:29;7.10;99.90
58568;DHT22;44354;46.192;-1.076;2023-04-15T05:23:55;7.00;99.90
58568;DHT22;44354;46.192;-1.076;2023-04-15T05:26:21;7.00;99.90
58568;DHT22;44354;46.192;-1.076;2023-04-15T05:28:47;7.10;99.90
58568;DHT22;44354;46.192;-1.076;2023-04-15T05:31:12;7.10;99.90
58568;DHT22;44354;46.192;-1.076;2023-04-15T05:33:38;7.10;99.90
58568;DHT22;44354;46.192;-1.076;2023-04-15T05:36:04;7.10;99.90
58568;DHT22;44354;46.192;-1.076;2023-04-15T05:38:30;7.20;99.90
58568;DHT22;44354;46.192;-1.076;2023-04-15T05:40:56;7.20;99.90
58568;DHT22;44354;46.192;-1.076;2023-04-15T05:43:21;7.10;99.90
58568;DHT22;44354;46.192;-1.076;2023-04-15T05:45:47;7.10;99.90
58568;DHT22;44354;46.192;-1.076;2023-04-15T05:48:12;7.20;99.90
58568;DHT22;44354;46.192;-1.076;2023-04-15T05:50:39;7.20;99.90
58568;DHT22;44354;46.192;-1.076;2023-04-15T05:53:05;7.20;99.90
58568;DHT22;44354;46.192;-1.076;2023-04-15T05:55:31;7.30;99.90
58568;DHT22;44354;46.192;-1.076;2023-04-15T05:57:57;7.30;99.90
58568;DHT22;44354;46.192;-1.076;2023-04-15T06:00:22;7.30;99.90
58568;DHT22;44354;46.192;-1.076;2023-04-15T06:02:48;7.40;99.90
58568;DHT22;44354;46.192;-1.076;2023-04-15T06:05:14;7.40;99.90
58568;DHT22;44354;46.192;-1.076;2023-04-15T06:07:39;7.50;99.90
58568;DHT22;44354;46.192;-1.076;2023-04-15T06:10:05;7.50;99.90
58568;DHT22;44354;46.192;-1.076;2023-04-15T06:12:31;7.50;99.90
58568;DHT22;44354;46.192;-1.076;2023-04-15T06:14:57;7.60;99.90
58568;DHT22;44354;46.192;-1.076;2023-04-15T06:17:22;7.60;99.90
58568;DHT22;44354;46.192;-1.076;2023-04-15T06:19:48;7.60;99.90
58568;DHT22;44354;46.192;-1.076;2023-04-15T06:22:15;7.60;99.90
58568;DHT22;44354;46.192;-1.076;2023-04-15T06:24:41;7.70;99.90
58568;DHT22;44354;46.192;-1.076;2023-04-15T06:27:07;7.70;99.90
58568;DHT22;44354;46.192;-1.076;2023-04-15T06:29:32;7.80;99.90
58568;DHT22;44354;46.192;-1.076;2023-04-15T06:31:58;7.80;99.90
58568;DHT22;44354;46.192;-1.076;2023-04-15T06:34:23;7.90;99.90
58568;DHT22;44354;46.192;-1.076;2023-04-15T06:36:49;8.00;99.90
58568;DHT22;44354;46.192;-1.076;2023-04-15T06:39:14;8.00;99.90
58568;DHT22;44354;46.192;-1.076;2023-04-15T06:41:40;8.10;99.90
58568;DHT22;44354;46.192;-1.076;2023-04-15T06:44:05;8.10;99.90
58568;DHT22;44354;46.192;-1.076;2023-04-15T06:46:31;8.10;99.90
58568;DHT22;44354;46.192;-1.076;2023-04-15T06:48:57;8.20;99.90
58568;DHT22;44354;46.192;-1.076;2023-04-15T06:51:22;8.30;99.90
58568;DHT22;44354;46.192;-1.076;2023-04-15T06:53:48;8.30;99.90
58568;DHT22;44354;46.192;-1.076;2023-04-15T06:56:13;8.40;99.90
58568;DHT22;44354;46.192;-1.076;2023-04-15T06:58:39;8.50;99.90
58568;DHT22;44354;46.192;-1.076;2023-04-15T07:01:04;8.50;99.90
58568;DHT22;44354;46.192;-1.076;2023-04-15T07:03:30;8.60;99.90
58568;DHT22;44354;46.192;-1.076;2023-04-15T07:05:56;8.70;99.90
58568;DHT22;44354;46.192;-1.076;2023-04-15T07:08:22;8.80;99.90
58568;DHT22;44354;46.192;-1.076;2023-04-15T07:10:48;8.80;99.90
58568;DHT22;44354;46.192;-1.076;2023-04-15T07:13:14;8.90;99.90
58568;DHT22;44354;46.192;-1.076;2023-04-15T07:15:39;8.90;99.90
58568;DHT22;44354;46.192;-1.076;2023-04-15T07:18:05;9.00;99.90
58568;DHT22;44354;46.192;-1.076;2023-04-15T07:20:31;9.00;99.90
58568;DHT22;44354;46.192;-1.076;2023-04-15T07:22:56;9.10;99.90
58568;DHT22;44354;46.192;-1.076;2023-04-15T07:25:22;9.10;99.90
58568;DHT22;44354;46.192;-1.076;2023-04-15T07:27:48;9.10;99.90
58568;DHT22;44354;46.192;-1.076;2023-04-15T07:30:13;9.20;99.90
58568;DHT22;44354;46.192;-1.076;2023-04-15T07:32:39;9.30;99.90
58568;DHT22;44354;46.192;-1.076;2023-04-15T07:35:05;9.40;99.90
58568;DHT22;44354;46.192;-1.076;2023-04-15T07:37:30;9.50;99.90
58568;DHT22;44354;46.192;-1.076;2023-04-15T07:39:56;9.60;99.90
58568;DHT22;44354;46.192;-1.076;2023-04-15T07:42:22;9.60;99.90
58568;DHT22;44354;46.192;-1.076;2023-04-15T07:44:47;9.70;99.90
58568;DHT22;44354;46.192;-1.076;2023-04-15T07:47:13;9.70;99.90
58568;DHT22;44354;46.192;-1.076;2023-04-15T07:49:40;9.70;99.90
58568;DHT22;44354;46.192;-1.076;2023-04-15T07:52:06;9.80;99.90
58568;DHT22;44354;46.192;-1.076;2023-04-15T07:54:31;9.90;99.90
58568;DHT22;44354;46.192;-1.076;2023-04-15T07:56:57;9.90;99.90
58568;DHT22;44354;46.192;-1.076;2023-04-15T07:59:23;10.10;99.90
58568;DHT22;44354;46.192;-1.076;2023-04-15T08:01:48;10.20;99.90
58568;DHT22;44354;46.192;-1.076;2023-04-15T08:04:14;10.20;99.90
58568;DHT22;44354;46.192;-1.076;2023-04-15T08:06:40;10.30;99.90
58568;DHT22;44354;46.192;-1.076;2023-04-15T08:09:05;10.40;99.90
58568;DHT22;44354;46.192;-1.076;2023-04-15T08:11:32;10.40;99.90
58568;DHT22;44354;46.192;-1.076;2023-04-15T08:13:58;10.50;99.90
58568;DHT22;44354;46.192;-1.076;2023-04-15T08:16:24;10.70;99.90
58568;DHT22;44354;46.192;-1.076;2023-04-15T08:18:52;10.70;99.90
58568;DHT22;44354;46.192;-1.076;2023-04-15T08:21:18;10.70;99.90
58568;DHT22;44354;46.192;-1.076;2023-04-15T08:23:44;10.80;99.90
58568;DHT22;44354;46.192;-1.076;2023-04-15T08:26:11;10.70;99.90
58568;DHT22;44354;46.192;-1.076;2023-04-15T08:28:37;10.90;99.90
58568;DHT22;44354;46.192;-1.076;2023-04-15T08:31:03;11.10;99.90
58568;DHT22;44354;46.192;-1.076;2023-04-15T08:33:28;11.30;99.90
58568;DHT22;44354;46.192;-1.076;2023-04-15T08:35:54;11.20;99.90
58568;DHT22;44354;46.192;-1.076;2023-04-15T08:38:20;11.00;99.90
58568;DHT22;44354;46.192;-1.076;2023-04-15T08:40:45;11.00;99.90
58568;DHT22;44354;46.192;-1.076;2023-04-15T08:43:17;11.20;99.90
58568;DHT22;44354;46.192;-1.076;2023-04-15T08:45:44;11.30;99.90
58568;DHT22;44354;46.192;-1.076;2023-04-15T08:48:12;11.30;99.90
58568;DHT22;44354;46.192;-1.076;2023-04-15T08:50:39;11.30;99.90
58568;DHT22;44354;46.192;-1.076;2023-04-15T08:53:04;11.50;99.90
58568;DHT22;44354;46.192;-1.076;2023-04-15T08:55:31;11.70;99.90
58568;DHT22;44354;46.192;-1.076;2023-04-15T08:58:00;11.70;99.90
58568;DHT22;44354;46.192;-1.076;2023-04-15T09:00:27;11.80;99.90
58568;DHT22;44354;46.192;-1.076;2023-04-15T09:02:54;11.90;99.90
58568;DHT22;44354;46.192;-1.076;2023-04-15T09:05:20;11.90;99.90
58568;DHT22;44354;46.192;-1.076;2023-04-15T09:07:46;11.70;99.90
58568;DHT22;44354;46.192;-1.076;2023-04-15T09:10:11;11.80;99.90
58568;DHT22;44354;46.192;-1.076;2023-04-15T09:12:37;12.00;99.90
58568;DHT22;44354;46.192;-1.076;2023-04-15T09:15:03;12.20;99.90
58568;DHT22;44354;46.192;-1.076;2023-04-15T09:17:29;12.10;99.90
58568;DHT22;44354;46.192;-1.076;2023-04-15T09:20:09;12.10;99.90
58568;DHT22;44354;46.192;-1.076;2023-04-15T09:22:35;12.20;99.90
58568;DHT22;44354;46.192;-1.076;2023-04-15T09:25:02;12.20;99.90
58568;DHT22;44354;46.192;-1.076;2023-04-15T09:27:28;12.40;99.90
58568;DHT22;44354;46.192;-1.076;2023-04-15T09:29:53;12.40;99.90
58568;DHT22;44354;46.192;-1.076;2023-04-15T09:32:19;12.50;99.90
58568;DHT22;44354;46.192;-1.076;2023-04-15T09:34:47;12.50;99.90
58568;DHT22;44354;46.192;-1.076;2023-04-15T09:37:13;12.80;99.90
58568;DHT22;44354;46.192;-1.076;2023-04-15T09:39:48;12.90;99.90
58568;DHT22;44354;46.192;-1.076;2023-04-15T09:42:14;12.70;99.90
58568;DHT22;44354;46.192;-1.076;2023-04-15T09:44:41;12.90;99.90
58568;DHT22;44354;46.192;-1.076;2023-04-15T09:47:07;12.80;99.90
58568;DHT22;44354;46.192;-1.076;2023-04-15T09:49:32;12.90;99.90
58568;DHT22;44354;46.192;-1.076;2023-04-15T09:51:58;12.90;99.90
58568;DHT22;44354;46.192;-1.076;2023-04-15T09:54:31;13.00;99.90
58568;DHT22;44354;46.192;-1.076;2023-04-15T09:56:58;13.10;99.90
58568;DHT22;44354;46.192;-1.076;2023-04-15T09:59:29;13.40;99.90
58568;DHT22;44354;46.192;-1.076;2023-04-15T10:01:54;13.20;99.90
58568;DHT22;44354;46.192;-1.076;2023-04-15T10:04:20;13.20;99.90
58568;DHT22;44354;46.192;-1.076;2023-04-15T10:06:46;13.20;99.90
58568;DHT22;44354;46.192;-1.076;2023-04-15T10:09:12;13.20;99.90
58568;DHT22;44354;46.192;-1.076;2023-04-15T10:11:37;13.20;99.90
58568;DHT22;44354;46.192;-1.076;2023-04-15T10:14:04;13.20;99.90
58568;DHT22;44354;46.192;-1.076;2023-04-15T10:16:30;13.50;99.90
58568;DHT22;44354;46.192;-1.076;2023-04-15T10:18:57;13.60;99.90
58568;DHT22;44354;46.192;-1.076;2023-04-15T10:21:25;13.70;99.90
58568;DHT22;44354;46.192;-1.076;2023-04-15T10:23:52;13.90;99.90
58568;DHT22;44354;46.192;-1.076;2023-04-15T10:26:17;13.80;99.90
58568;DHT22;44354;46.192;-1.076;2023-04-15T10:28:43;13.60;99.90
58568;DHT22;44354;46.192;-1.076;2023-04-15T10:31:12;13.80;99.90
58568;DHT22;44354;46.192;-1.076;2023-04-15T10:33:39;13.90;99.90
58568;DHT22;44354;46.192;-1.076;2023-04-15T10:36:05;13.80;99.90
58568;DHT22;44354;46.192;-1.076;2023-04-15T10:38:35;14.00;99.90
58568;DHT22;44354;46.192;-1.076;2023-04-15T10:41:11;14.10;99.90
58568;DHT22;44354;46.192;-1.076;2023-04-15T10:43:37;14.10;99.90
58568;DHT22;44354;46.192;-1.076;2023-04-15T10:46:04;13.80;99.90
58568;DHT22;44354;46.192;-1.076;2023-04-15T10:48:30;13.90;99.90
58568;DHT22;44354;46.192;-1.076;2023-04-15T10:50:56;13.80;99.90
58568;DHT22;44354;46.192;-1.076;2023-04-15T10:53:28;13.70;99.90
58568;DHT22;44354;46.192;-1.076;2023-04-15T10:55:54;13.70;99.90
58568;DHT22;44354;46.192;-1.076;2023-04-15T10:58:24;13.70;99.90
58568;DHT22;44354;46.192;-1.076;2023-04-15T11:00:53;13.90;99.90
58568;DHT22;44354;46.192;-1.076;2023-04-15T11:03:37;14.20;99.90
58568;DHT22;44354;46.192;-1.076;2023-04-15T11:06:03;14.20;99.90
58568;DHT22;44354;46.192;-1.076;2023-04-15T11:11:14;13.60;99.90
58568;DHT22;44354;46.192;-1.076;2023-04-15T11:13:46;13.70;99.90
58568;DHT22;44354;46.192;-1.076;2023-04-15T11:16:12;13.70;99.90
58568;DHT22;44354;46.192;-1.076;2023-04-15T11:18:38;14.00;99.90
58568;DHT22;44354;46.192;-1.076;2023-04-15T11:21:04;14.00;99.90
58568;DHT22;44354;46.192;-1.076;2023-04-15T11:23:31;13.90;99.90
58568;DHT22;44354;46.192;-1.076;2023-04-15T11:25:58;13.80;99.90
58568;DHT22;44354;46.192;-1.076;2023-04-15T11:28:24;13.70;99.90
58568;DHT22;44354;46.192;-1.076;2023-04-15T11:30:50;13.80;99.90
58568;DHT22;44354;46.192;-1.076;2023-04-15T11:33:16;14.00;99.90
58568;DHT22;44354;46.192;-1.076;2023-04-15T11:35:42;13.80;99.90
58568;DHT22;44354;46.192;-1.076;2023-04-15T11:38:09;14.00;99.90
58568;DHT22;44354;46.192;-1.076;2023-04-15T11:40:35;13.80;99.90
58568;DHT22;44354;46.192;-1.076;2023-04-15T11:43:08;13.70;99.90
58568;DHT22;44354;46.192;-1.076;2023-04-15T11:45:35;13.90;99.90
58568;DHT22;44354;46.192;-1.076;2023-04-15T11:48:10;13.80;99.90
58568;DHT22;44354;46.192;-1.076;2023-04-15T11:50:37;14.00;99.90
58568;DHT22;44354;46.192;-1.076;2023-04-15T11:53:05;14.20;99.90
58568;DHT22;44354;46.192;-1.076;2023-04-15T11:55:39;14.10;99.90
58568;DHT22;44354;46.192;-1.076;2023-04-15T12:00:32;14.10;99.90
58568;DHT22;44354;46.192;-1.076;2023-04-15T12:03:12;14.10;99.90
58568;DHT22;44354;46.192;-1.076;2023-04-15T12:06:01;13.90;99.90
58568;DHT22;44354;46.192;-1.076;2023-04-15T12:08:22;14.00;99.90
58568;DHT22;44354;46.192;-1.076;2023-04-15T12:10:48;14.20;99.90
58568;DHT22;44354;46.192;-1.076;2023-04-15T12:13:13;14.10;99.90
58568;DHT22;44354;46.192;-1.076;2023-04-15T12:15:39;13.80;99.90
58568;DHT22;44354;46.192;-1.076;2023-04-15T12:18:04;13.90;99.90
58568;DHT22;44354;46.192;-1.076;2023-04-15T12:20:30;14.10;99.90
58568;DHT22;44354;46.192;-1.076;2023-04-15T12:23:04;14.10;99.90
58568;DHT22;44354;46.192;-1.076;2023-04-15T12:25:33;13.90;99.90
58568;DHT22;44354;46.192;-1.076;2023-04-15T12:27:59;14.10;99.90
58568;DHT22;44354;46.192;-1.076;2023-04-15T12:30:24;14.00;99.90
58568;DHT22;44354;46.192;-1.076;2023-04-15T12:32:50;14.00;99.90
58568;DHT22;44354;46.192;-1.076;2023-04-15T12:35:16;13.70;99.90
58568;DHT22;44354;46.192;-1.076;2023-04-15T12:37:43;13.90;99.90
58568;DHT22;44354;46.192;-1.076;2023-04-15T12:40:09;14.20;99.90
58568;DHT22;44354;46.192;-1.076;2023-04-15T12:42:34;14.40;99.90
58568;DHT22;44354;46.192;-1.076;2023-04-15T12:45:00;13.90;99.90
58568;DHT22;44354;46.192;-1.076;2023-04-15T12:47:26;14.30;99.90
58568;DHT22;44354;46.192;-1.076;2023-04-15T12:49:52;14.00;99.90
58568;DHT22;44354;46.192;-1.076;2023-04-15T12:52:17;14.10;99.90
58568;DHT22;44354;46.192;-1.076;2023-04-15T12:54:43;14.40;99.90
58568;DHT22;44354;46.192;-1.076;2023-04-15T12:57:09;14.30;99.90
58568;DHT22;44354;46.192;-1.076;2023-04-15T12:59:34;13.90;99.90
58568;DHT22;44354;46.192;-1.076;2023-04-15T13:02:00;13.90;99.90
58568;DHT22;44354;46.192;-1.076;2023-04-15T13:04:26;13.90;99.90
58568;DHT22;44354;46.192;-1.076;2023-04-15T13:06:54;14.00;99.90
58568;DHT22;44354;46.192;-1.076;2023-04-15T13:09:20;14.10;99.90
58568;DHT22;44354;46.192;-1.076;2023-04-15T13:11:46;14.30;99.90
58568;DHT22;44354;46.192;-1.076;2023-04-15T13:14:11;14.20;99.90
58568;DHT22;44354;46.192;-1.076;2023-04-15T13:16:37;14.00;99.90
58568;DHT22;44354;46.192;-1.076;2023-04-15T13:19:02;13.90;99.90
58568;DHT22;44354;46.192;-1.076;2023-04-15T13:21:28;13.90;99.90
58568;DHT22;44354;46.192;-1.076;2023-04-15T13:23:56;14.10;99.90
58568;DHT22;44354;46.192;-1.076;2023-04-15T13:26:21;13.90;99.90
58568;DHT22;44354;46.192;-1.076;2023-04-15T13:28:47;14.00;99.90
58568;DHT22;44354;46.192;-1.076;2023-04-15T13:31:12;14.10;99.90
58568;DHT22;44354;46.192;-1.076;2023-04-15T13:33:38;13.90;99.90
58568;DHT22;44354;46.192;-1.076;2023-04-15T13:36:03;14.20;99.90
58568;DHT22;44354;46.192;-1.076;2023-04-15T13:38:29;14.50;99.90
58568;DHT22;44354;46.192;-1.076;2023-04-15T13:40:55;14.50;99.90
58568;DHT22;44354;46.192;-1.076;2023-04-15T13:43:20;14.40;99.90
58568;DHT22;44354;46.192;-1.076;2023-04-15T13:45:46;14.30;99.90
58568;DHT22;44354;46.192;-1.076;2023-04-15T13:48:12;14.40;99.90
58568;DHT22;44354;46.192;-1.076;2023-04-15T13:50:37;14.20;99.90
58568;DHT22;44354;46.192;-1.076;2023-04-15T13:53:03;14.20;99.90
58568;DHT22;44354;46.192;-1.076;2023-04-15T13:55:28;14.00;99.90
58568;DHT22;44354;46.192;-1.076;2023-04-15T13:57:55;14.20;99.90
58568;DHT22;44354;46.192;-1.076;2023-04-15T14:00:20;14.20;99.90
58568;DHT22;44354;46.192;-1.076;2023-04-15T14:02:46;14.30;99.90
58568;DHT22;44354;46.192;-1.076;2023-04-15T14:05:12;14.20;99.90
58568;DHT22;44354;46.192;-1.076;2023-04-15T14:07:37;14.00;99.90
58568;DHT22;44354;46.192;-1.076;2023-04-15T14:10:03;14.20;99.90
58568;DHT22;44354;46.192;-1.076;2023-04-15T14:12:28;14.10;99.90
58568;DHT22;44354;46.192;-1.076;2023-04-15T14:14:54;14.10;99.90
58568;DHT22;44354;46.192;-1.076;2023-04-15T14:17:20;14.10;99.90
58568;DHT22;44354;46.192;-1.076;2023-04-15T14:19:45;14.30;99.90
58568;DHT22;44354;46.192;-1.076;2023-04-15T14:22:11;14.30;99.90
58568;DHT22;44354;46.192;-1.076;2023-04-15T14:24:36;14.40;99.90
58568;DHT22;44354;46.192;-1.076;2023-04-15T14:27:02;14.30;99.90
58568;DHT22;44354;46.192;-1.076;2023-04-15T14:29:27;14.00;99.90
58568;DHT22;44354;46.192;-1.076;2023-04-15T14:31:53;14.30;99.90
58568;DHT22;44354;46.192;-1.076;2023-04-15T14:34:21;14.40;99.90
58568;DHT22;44354;46.192;-1.076;2023-04-15T14:36:49;14.50;99.90
58568;DHT22;44354;46.192;-1.076;2023-04-15T14:39:15;14.30;99.90
58568;DHT22;44354;46.192;-1.076;2023-04-15T14:41:40;14.30;99.90
58568;DHT22;44354;46.192;-1.076;2023-04-15T14:44:06;14.30;99.90
58568;DHT22;44354;46.192;-1.076;2023-04-15T14:46:33;14.30;99.90
58568;DHT22;44354;46.192;-1.076;2023-04-15T14:48:59;14.10;99.90
58568;DHT22;44354;46.192;-1.076;2023-04-15T14:51:24;14.10;99.90
58568;DHT22;44354;46.192;-1.076;2023-04-15T14:53:51;14.30;99.90
58568;DHT22;44354;46.192;-1.076;2023-04-15T14:56:16;14.00;99.90
58568;DHT22;44354;46.192;-1.076;2023-04-15T14:58:42;13.90;99.90
58568;DHT22;44354;46.192;-1.076;2023-04-15T15:01:07;14.10;99.90
58568;DHT22;44354;46.192;-1.076;2023-04-15T15:03:33;14.30;99.90
58568;DHT22;44354;46.192;-1.076;2023-04-15T15:05:58;14.00;99.90
58568;DHT22;44354;46.192;-1.076;2023-04-15T15:08:24;14.10;99.90
58568;DHT22;44354;46.192;-1.076;2023-04-15T15:10:49;14.00;99.90
58568;DHT22;44354;46.192;-1.076;2023-04-15T15:13:15;13.90;99.90
58568;DHT22;44354;46.192;-1.076;2023-04-15T15:15:41;13.90;99.90
58568;DHT22;44354;46.192;-1.076;2023-04-15T15:18:06;13.90;99.90
58568;DHT22;44354;46.192;-1.076;2023-04-15T15:20:32;13.90;99.90